createdAt,value
2022-09-14T00:00:13.713Z,7.53
2022-09-14T00:02:42.149Z,7.07
2022-09-14T00:05:09.259Z,7.68
2022-09-14T00:07:36.150Z,8.70
2022-09-14T00:10:03.037Z,7.43
2022-09-14T00:12:30.385Z,7.85
2022-09-14T00:14:57.155Z,8.25
2022-09-14T00:17:24.046Z,8.30
2022-09-14T00:19:50.915Z,7.93
2022-09-14T00:22:17.874Z,8.63
2022-09-14T00:24:44.745Z,8.15
2022-09-14T00:27:11.696Z,7.93
2022-09-14T00:29:38.590Z,8.30
2022-09-14T00:32:05.627Z,9.13
2022-09-14T00:34:32.729Z,7.70
2022-09-14T00:36:59.638Z,10.50
2022-09-14T00:39:28.320Z,9.43
2022-09-14T00:41:55.336Z,8.93
2022-09-14T00:44:25.261Z,9.40
2022-09-14T00:46:53.471Z,10.23
2022-09-14T00:49:22.689Z,8.60
2022-09-14T00:51:55.247Z,9.13
2022-09-14T00:54:22.191Z,15.73
2022-09-14T00:56:49.652Z,14.95
2022-09-14T00:59:18.108Z,14.82
2022-09-14T01:01:45.138Z,14.77
2022-09-14T01:04:12.131Z,11.23
2022-09-14T01:06:43.195Z,9.20
2022-09-14T01:09:10.025Z,10.88
2022-09-14T01:11:42.902Z,17.80
2022-09-14T01:14:17.136Z,13.57
2022-09-14T01:16:50.707Z,11.15
2022-09-14T01:19:33.693Z,10.30
2022-09-14T01:22:05.659Z,9.13
2022-09-14T01:24:45.921Z,9.45
2022-09-14T01:27:12.911Z,10.30
2022-09-14T01:29:46.942Z,10.07
2022-09-14T01:32:13.803Z,10.05
2022-09-14T01:34:44.726Z,10.27
2022-09-14T01:37:30.162Z,10.10
2022-09-14T01:40:22.367Z,10.45
2022-09-14T01:42:52.179Z,10.23
2022-09-14T01:45:21.375Z,10.70
2022-09-14T01:48:08.568Z,10.43
2022-09-14T01:50:40.326Z,9.18
2022-09-14T01:53:16.563Z,10.13
2022-09-14T01:55:46.230Z,10.50
2022-09-14T01:58:18.969Z,8.98
2022-09-14T02:00:46.289Z,9.85
2022-09-14T02:03:16.593Z,10.85
2022-09-14T02:05:43.704Z,11.02
2022-09-14T02:08:10.682Z,11.70
2022-09-14T02:10:37.697Z,10.45
2022-09-14T02:13:04.670Z,11.50
2022-09-14T02:15:31.620Z,11.60
2022-09-14T02:17:58.554Z,11.48
2022-09-14T02:20:37.865Z,12.30
2022-09-14T02:23:05.349Z,14.57
2022-09-14T02:25:32.504Z,14.05
2022-09-14T02:27:59.420Z,12.73
2022-09-14T02:30:27.339Z,13.40
2022-09-14T02:32:54.208Z,15.45
2022-09-14T02:35:37.503Z,14.68
2022-09-14T02:38:23.189Z,16.33
2022-09-14T02:41:19.524Z,16.23
2022-09-14T02:43:52.436Z,16.55
2022-09-14T02:46:38.678Z,18.77
2022-09-14T02:49:22.589Z,16.63
2022-09-14T02:51:56.187Z,21.10
2022-09-14T02:54:32.964Z,22.05
2022-09-14T02:57:00.584Z,17.30
2022-09-14T02:59:27.405Z,15.40
2022-09-14T03:01:54.677Z,14.07
2022-09-14T03:04:21.808Z,13.35
2022-09-14T03:06:48.625Z,12.90
2022-09-14T03:09:15.496Z,11.00
2022-09-14T03:11:42.482Z,12.88
2022-09-14T03:14:10.413Z,12.30
2022-09-14T03:16:38.152Z,11.15
2022-09-14T03:19:06.127Z,10.95
2022-09-14T03:21:33.358Z,12.07
2022-09-14T03:24:00.198Z,12.30
2022-09-14T03:26:29.140Z,11.82
2022-09-14T03:28:57.301Z,12.20
2022-09-14T03:31:24.892Z,12.80
2022-09-14T03:33:58.507Z,13.13
2022-09-14T03:36:26.674Z,12.68
2022-09-14T03:38:54.712Z,13.27
2022-09-14T03:41:22.459Z,13.18
2022-09-14T03:43:49.659Z,13.23
2022-09-14T03:46:21.573Z,13.35
2022-09-14T03:48:49.280Z,12.00
2022-09-14T03:51:16.176Z,12.77
2022-09-14T03:53:44.535Z,13.25
2022-09-14T03:56:12.940Z,11.70
2022-09-14T03:58:39.759Z,12.00
2022-09-14T04:01:07.233Z,12.70
2022-09-14T04:03:34.587Z,12.45
2022-09-14T04:06:01.530Z,12.52
2022-09-14T04:08:28.449Z,13.43
2022-09-14T04:10:55.302Z,12.68
2022-09-14T04:13:22.196Z,13.18
2022-09-14T04:15:59.112Z,13.73
2022-09-14T04:18:27.709Z,13.90
2022-09-14T04:20:56.416Z,13.48
2022-09-14T04:23:23.645Z,14.80
2022-09-14T04:25:50.481Z,14.88
2022-09-14T04:28:20.484Z,14.05
2022-09-14T04:30:57.723Z,15.98
2022-09-14T04:33:25.039Z,14.50
2022-09-14T04:36:02.551Z,13.73
2022-09-14T04:38:30.526Z,12.45
2022-09-14T04:40:57.667Z,13.63
2022-09-14T04:43:25.156Z,14.38
2022-09-14T04:45:52.535Z,15.38
2022-09-14T04:48:19.724Z,15.50
2022-09-14T04:50:46.636Z,15.70
2022-09-14T04:53:13.540Z,17.63
2022-09-14T04:55:40.482Z,15.52
2022-09-14T04:58:07.319Z,16.40
2022-09-14T05:00:36.166Z,17.45
2022-09-14T05:03:04.431Z,17.23
2022-09-14T05:05:31.651Z,16.98
2022-09-14T05:07:58.458Z,17.65
2022-09-14T05:10:25.246Z,19.52
2022-09-14T05:12:52.094Z,18.13
2022-09-14T05:15:18.914Z,17.33
2022-09-14T05:17:45.748Z,17.95
2022-09-14T05:20:12.612Z,17.70
2022-09-14T05:22:39.461Z,18.17
2022-09-14T05:25:06.553Z,18.88
2022-09-14T05:27:33.382Z,17.92
2022-09-14T05:30:00.332Z,20.77
2022-09-14T05:32:27.199Z,18.65
2022-09-14T05:34:54.171Z,19.23
2022-09-14T05:37:21.093Z,18.20
2022-09-14T05:39:47.953Z,18.48
2022-09-14T05:42:14.823Z,17.95
2022-09-14T05:44:41.718Z,18.10
2022-09-14T05:47:08.568Z,17.08
2022-09-14T05:49:35.381Z,17.42
2022-09-14T05:52:02.309Z,17.30
2022-09-14T05:54:29.234Z,17.88
2022-09-14T05:56:56.136Z,17.40
2022-09-14T05:59:23.063Z,15.93
2022-09-14T06:01:50.066Z,17.63
2022-09-14T06:04:17.051Z,17.58
2022-09-14T06:06:52.257Z,17.58
2022-09-14T06:09:33.245Z,17.77
2022-09-14T06:12:00.362Z,18.73
2022-09-14T06:14:27.236Z,17.35
2022-09-14T06:16:54.161Z,19.33
2022-09-14T06:19:21.023Z,17.80
2022-09-14T06:21:47.955Z,18.55
2022-09-14T06:24:14.812Z,18.88
2022-09-14T06:26:41.912Z,18.92
2022-09-14T06:29:08.925Z,18.20
2022-09-14T06:31:36.118Z,18.67
2022-09-14T06:34:04.201Z,17.88
2022-09-14T06:36:31.179Z,16.98
2022-09-14T06:38:59.476Z,17.23
2022-09-14T06:41:29.308Z,17.23
2022-09-14T06:43:57.563Z,16.88
2022-09-14T06:46:25.943Z,17.10
2022-09-14T06:48:54.780Z,17.30
2022-09-14T06:51:24.702Z,17.45
2022-09-14T06:53:51.813Z,16.58
2022-09-14T06:56:18.745Z,16.50
2022-09-14T06:58:46.038Z,17.65
2022-09-14T07:01:15.133Z,18.55
2022-09-14T07:03:44.130Z,17.90
2022-09-14T07:06:12.872Z,17.95
2022-09-14T07:08:40.212Z,17.90
2022-09-14T07:11:07.882Z,17.63
2022-09-14T07:13:34.850Z,15.98
2022-09-14T07:16:03.518Z,16.25
2022-09-14T07:18:34.265Z,16.30
2022-09-14T07:23:32.188Z,15.65
2022-09-14T07:26:12.743Z,15.48
2022-09-14T07:28:40.061Z,16.10
2022-09-14T07:31:15.166Z,15.55
2022-09-14T07:33:42.179Z,15.20
2022-09-14T07:36:10.048Z,15.85
2022-09-14T07:38:51.520Z,15.45
2022-09-14T07:41:20.733Z,15.68
2022-09-14T07:43:51.214Z,15.40
2022-09-14T07:46:18.727Z,15.75
2022-09-14T07:48:45.628Z,15.90
2022-09-14T07:51:12.571Z,16.70
2022-09-14T07:53:42.635Z,15.93
2022-09-14T07:56:10.569Z,17.08
2022-09-14T07:58:37.349Z,17.88
2022-09-14T08:01:05.285Z,16.67
2022-09-14T08:03:32.043Z,17.30
2022-09-14T08:06:02.916Z,16.73
2022-09-14T08:08:30.919Z,19.02
2022-09-14T08:11:03.584Z,18.13
2022-09-14T08:13:31.086Z,18.25
2022-09-14T08:16:00.988Z,17.55
2022-09-14T08:18:31.084Z,17.80
2022-09-14T08:20:57.925Z,18.13
2022-09-14T08:23:25.577Z,19.48
2022-09-14T08:25:53.343Z,19.90
2022-09-14T08:28:20.147Z,20.38
2022-09-14T08:30:47.309Z,20.30
2022-09-14T08:33:14.060Z,22.83
2022-09-14T08:35:57.454Z,22.02
2022-09-14T08:38:25.304Z,20.85
2022-09-14T08:40:52.257Z,21.75
2022-09-14T08:43:19.826Z,21.75
2022-09-14T08:45:48.580Z,21.00
2022-09-14T08:48:20.486Z,20.02
2022-09-14T08:50:47.258Z,20.70
2022-09-14T08:53:14.141Z,20.02
2022-09-14T08:55:54.394Z,18.67
2022-09-14T08:58:48.164Z,21.13
2022-09-14T09:01:18.354Z,20.17
2022-09-14T09:03:54.127Z,19.77
2022-09-14T09:06:26.995Z,20.27
2022-09-14T09:08:53.739Z,19.00
2022-09-14T09:11:22.136Z,19.23
2022-09-14T09:13:51.238Z,19.80
2022-09-14T09:16:20.290Z,18.65
2022-09-14T09:18:49.444Z,20.15
2022-09-14T09:21:17.623Z,18.27
2022-09-14T09:23:44.937Z,18.17
2022-09-14T09:26:20.640Z,18.13
2022-09-14T09:28:49.653Z,19.25
2022-09-14T09:31:17.873Z,16.95
2022-09-14T09:36:36.504Z,15.50
2022-09-14T09:39:05.369Z,14.68
2022-09-14T09:41:52.735Z,15.52
2022-09-14T09:44:19.732Z,14.98
2022-09-14T09:46:48.865Z,15.32
2022-09-14T09:49:24.757Z,14.43
2022-09-14T09:51:52.910Z,14.88
2022-09-14T09:54:19.740Z,14.82
2022-09-14T09:56:57.347Z,15.30
2022-09-14T09:59:28.910Z,15.57
2022-09-14T10:01:56.745Z,16.45
2022-09-14T10:04:30.862Z,14.60
2022-09-14T10:07:00.382Z,16.55
2022-09-14T10:09:28.146Z,15.65
2022-09-14T10:12:02.365Z,13.93
2022-09-14T10:14:33.619Z,15.23
2022-09-14T10:17:15.910Z,16.77
2022-09-14T10:19:46.940Z,15.68
2022-09-14T10:22:21.948Z,15.30
2022-09-14T10:24:56.220Z,16.55
2022-09-14T10:27:38.608Z,17.13
2022-09-14T10:30:19.613Z,17.65
2022-09-14T10:32:50.146Z,16.33
2022-09-14T10:35:17.666Z,15.27
2022-09-14T10:38:10.855Z,16.15
2022-09-14T10:40:39.968Z,15.60
2022-09-14T10:43:13.580Z,14.32
2022-09-14T10:45:50.365Z,15.10
2022-09-14T10:48:22.941Z,16.35
2022-09-14T10:51:09.951Z,14.98
2022-09-14T10:53:41.400Z,15.95
2022-09-14T10:56:19.126Z,16.85
2022-09-14T10:58:49.349Z,18.92
2022-09-14T11:01:32.340Z,18.48
2022-09-14T11:04:11.556Z,14.60
2022-09-14T11:06:41.388Z,14.82
2022-09-14T11:09:17.739Z,14.10
2022-09-14T11:11:44.511Z,14.70
2022-09-14T11:14:30.135Z,14.45
2022-09-14T11:16:56.975Z,13.98
2022-09-14T11:19:23.939Z,14.75
2022-09-14T11:21:50.842Z,15.02
2022-09-14T11:24:19.694Z,16.02
2022-09-14T11:27:08.380Z,14.70
2022-09-14T11:29:39.142Z,14.93
2022-09-14T11:32:20.770Z,14.70
2022-09-14T11:34:54.981Z,14.68
2022-09-14T11:37:26.129Z,13.93
2022-09-14T11:40:02.120Z,14.27
2022-09-14T11:42:37.538Z,13.68
2022-09-14T11:45:13.941Z,13.63
2022-09-14T11:47:44.415Z,13.43
2022-09-14T11:50:23.137Z,11.95
2022-09-14T11:52:56.343Z,12.35
2022-09-14T11:55:23.427Z,12.20
2022-09-14T11:57:50.354Z,13.35
2022-09-14T12:00:20.175Z,11.90
2022-09-14T12:02:58.648Z,11.80
2022-09-14T12:05:26.668Z,12.40
2022-09-14T12:08:04.196Z,12.52
2022-09-14T12:10:31.219Z,12.02
2022-09-14T12:13:17.692Z,12.10
2022-09-14T12:15:45.324Z,12.80
2022-09-14T12:18:13.494Z,13.27
2022-09-14T12:20:44.758Z,13.57
2022-09-14T12:23:29.784Z,14.30
2022-09-14T12:26:12.210Z,15.35
2022-09-14T12:28:48.341Z,16.02
2022-09-14T12:31:34.376Z,15.40
2022-09-14T12:34:24.774Z,16.13
2022-09-14T12:36:52.335Z,17.50
2022-09-14T12:39:20.120Z,17.50
2022-09-14T12:41:47.038Z,17.73
2022-09-14T12:44:34.137Z,17.30
2022-09-14T12:47:19.901Z,16.98
2022-09-14T12:49:48.557Z,17.92
2022-09-14T12:52:23.533Z,17.88
2022-09-14T12:54:56.560Z,18.65
2022-09-14T12:57:31.558Z,18.23
2022-09-14T12:59:58.499Z,17.27
2022-09-14T13:02:43.961Z,18.17
2022-09-14T13:05:19.171Z,17.77
2022-09-14T13:07:47.143Z,17.38
2022-09-14T13:10:23.040Z,18.15
2022-09-14T13:12:51.007Z,18.23
2022-09-14T13:15:21.024Z,17.23
2022-09-14T13:18:00.216Z,19.08
2022-09-14T13:20:27.561Z,17.83
2022-09-14T13:22:54.471Z,20.20
2022-09-14T13:25:33.391Z,19.27
2022-09-14T13:28:08.019Z,21.00
2022-09-14T13:30:35.824Z,20.58
2022-09-14T13:33:04.182Z,20.08
2022-09-14T13:35:33.830Z,19.55
2022-09-14T13:38:08.422Z,19.25
2022-09-14T13:40:35.834Z,17.23
2022-09-14T13:43:03.389Z,17.30
2022-09-14T13:45:30.603Z,16.65
2022-09-14T13:47:58.310Z,18.33
2022-09-14T13:50:25.704Z,16.33
2022-09-14T13:53:02.948Z,17.85
2022-09-14T13:55:33.907Z,18.92
2022-09-14T13:58:07.964Z,17.23
2022-09-14T14:00:47.767Z,18.08
2022-09-14T14:03:30.753Z,17.60
2022-09-14T14:05:58.793Z,17.83
2022-09-14T14:08:31.902Z,18.25
2022-09-14T14:11:00.087Z,17.33
2022-09-14T14:13:31.925Z,18.55
2022-09-14T14:16:15.042Z,16.90
2022-09-14T14:18:43.764Z,16.48
2022-09-14T14:21:11.785Z,15.48
2022-09-14T14:23:51.316Z,15.65
2022-09-14T14:26:27.775Z,15.02
2022-09-14T14:28:55.287Z,14.55
2022-09-14T14:31:23.187Z,15.52
2022-09-14T14:33:51.836Z,15.13
2022-09-14T14:36:19.699Z,15.38
2022-09-14T14:38:47.707Z,14.93
2022-09-14T14:41:16.631Z,15.45
2022-09-14T14:43:46.810Z,15.10
2022-09-14T14:46:15.095Z,16.48
2022-09-14T14:48:42.197Z,16.38
2022-09-14T14:51:14.574Z,16.77
2022-09-14T14:53:42.525Z,16.75
2022-09-14T14:56:13.916Z,17.48
2022-09-14T14:58:45.420Z,17.35
2022-09-14T15:01:12.732Z,16.95
2022-09-14T15:03:40.235Z,17.02
2022-09-14T15:06:24.594Z,17.65
2022-09-14T15:08:55.849Z,17.98
2022-09-14T15:11:23.460Z,16.80
2022-09-14T15:13:51.105Z,17.50
2022-09-14T15:16:18.440Z,16.98
2022-09-14T15:18:45.660Z,15.07
2022-09-14T15:21:12.642Z,15.55
2022-09-14T15:23:39.826Z,15.90
2022-09-14T15:26:07.061Z,15.70
2022-09-14T15:28:38.761Z,15.00
2022-09-14T15:31:07.959Z,15.35
2022-09-14T15:33:35.554Z,14.52
2022-09-14T15:36:04.201Z,14.48
2022-09-14T15:38:31.551Z,13.82
2022-09-14T15:40:58.726Z,14.45
2022-09-14T15:43:26.393Z,14.02
2022-09-14T15:45:54.023Z,13.73
2022-09-14T15:48:21.708Z,14.55
2022-09-14T15:50:48.796Z,14.20
2022-09-14T15:53:17.870Z,13.70
2022-09-14T15:55:52.987Z,15.63
2022-09-14T15:58:20.370Z,14.77
2022-09-14T16:00:47.407Z,14.55
2022-09-14T16:03:14.497Z,16.95
2022-09-14T16:05:41.652Z,15.18
2022-09-14T16:08:08.986Z,15.55
2022-09-14T16:10:36.046Z,15.82
2022-09-14T16:13:03.600Z,16.55
2022-09-14T16:15:30.463Z,16.08
2022-09-14T16:17:57.805Z,16.60
2022-09-14T16:20:25.117Z,15.75
2022-09-14T16:23:01.146Z,16.17
2022-09-14T16:25:29.085Z,15.45
2022-09-14T16:27:57.836Z,16.55
2022-09-14T16:30:25.291Z,15.25
2022-09-14T16:32:53.983Z,16.60
2022-09-14T16:35:21.486Z,16.08
2022-09-14T16:37:49.521Z,15.43
2022-09-14T16:40:18.145Z,17.13
2022-09-14T16:42:48.676Z,16.77
2022-09-14T16:45:16.113Z,16.70
2022-09-14T16:47:43.621Z,17.05
2022-09-14T16:50:11.041Z,17.90
2022-09-14T16:52:37.942Z,16.98
2022-09-14T16:55:05.732Z,16.27
2022-09-14T16:57:33.050Z,17.83
2022-09-14T17:00:00.080Z,17.70
2022-09-14T17:02:27.461Z,18.42
2022-09-14T17:04:54.905Z,18.65
2022-09-14T17:07:24.254Z,18.85
2022-09-14T17:09:51.478Z,18.15
2022-09-14T17:12:18.854Z,18.67
2022-09-14T17:14:50.536Z,20.15
2022-09-14T17:17:18.341Z,19.02
2022-09-14T17:19:45.846Z,20.17
2022-09-14T17:22:14.430Z,19.25
2022-09-14T17:24:42.068Z,20.10
2022-09-14T17:27:10.055Z,20.48
2022-09-14T17:29:39.666Z,20.52
2022-09-14T17:34:38.377Z,21.00
2022-09-14T17:37:05.513Z,22.38
2022-09-14T17:39:32.841Z,24.95
2022-09-14T17:42:00.768Z,26.60
2022-09-14T17:44:31.438Z,25.38
2022-09-14T17:46:59.094Z,25.83
2022-09-14T17:49:26.710Z,28.13
2022-09-14T17:51:54.993Z,24.17
2022-09-14T17:54:22.217Z,25.45
2022-09-14T17:56:49.280Z,29.50
2022-09-14T17:59:17.820Z,27.15
2022-09-14T18:01:45.297Z,27.92
2022-09-14T18:04:13.180Z,27.05
2022-09-14T18:06:42.093Z,28.85
2022-09-14T18:09:10.791Z,25.05
2022-09-14T18:11:39.113Z,24.80
2022-09-14T18:14:06.495Z,24.25
2022-09-14T18:16:33.738Z,24.95
2022-09-14T18:19:01.926Z,23.38
2022-09-14T18:21:29.039Z,25.42
2022-09-14T18:23:56.425Z,23.35
2022-09-14T18:26:26.286Z,24.50
2022-09-14T18:28:56.094Z,23.52
2022-09-14T18:31:23.599Z,23.10
2022-09-14T18:33:52.353Z,24.60
2022-09-14T18:36:20.089Z,26.83
2022-09-14T18:38:48.780Z,27.77
2022-09-14T18:41:16.747Z,27.40
2022-09-14T18:43:45.647Z,28.30
2022-09-14T18:46:12.935Z,29.48
2022-09-14T18:48:40.918Z,29.95
2022-09-14T18:51:08.271Z,29.65
2022-09-14T18:53:35.628Z,29.38
2022-09-14T18:56:03.786Z,31.08
2022-09-14T18:58:34.826Z,34.17
2022-09-14T19:01:03.360Z,33.92
2022-09-14T19:03:31.462Z,36.47
2022-09-14T19:05:59.618Z,35.35
2022-09-14T19:08:28.407Z,36.35
2022-09-14T19:10:55.400Z,36.85
2022-09-14T19:13:22.607Z,39.80
2022-09-14T19:15:49.782Z,38.33
2022-09-14T19:18:16.695Z,35.38
2022-09-14T19:21:05.851Z,35.13
2022-09-14T19:23:33.065Z,30.85
2022-09-14T19:26:04.350Z,32.72
2022-09-14T19:28:31.215Z,32.85
2022-09-14T19:30:58.224Z,33.05
2022-09-14T19:33:25.623Z,32.33
2022-09-14T19:35:52.550Z,28.60
2022-09-14T19:38:19.467Z,28.70
2022-09-14T19:40:52.850Z,29.17
2022-09-14T19:43:19.919Z,28.42
2022-09-14T19:45:46.761Z,28.83
2022-09-14T19:48:13.824Z,27.95
2022-09-14T19:50:40.914Z,26.58
2022-09-14T19:53:07.874Z,27.75
2022-09-14T19:55:34.829Z,27.35
2022-09-14T19:58:01.683Z,27.42
2022-09-14T20:00:28.662Z,27.77
2022-09-14T20:02:55.600Z,28.05
2022-09-14T20:05:22.656Z,30.10
2022-09-14T20:07:49.763Z,29.80
2022-09-14T20:10:18.389Z,30.08
2022-09-14T20:12:46.512Z,29.83
2022-09-14T20:15:13.434Z,31.40
2022-09-14T20:17:40.402Z,31.77
2022-09-14T20:20:11.478Z,31.85
2022-09-14T20:22:38.434Z,31.48
2022-09-14T20:25:05.491Z,31.33
2022-09-14T20:27:32.410Z,31.13
2022-09-14T20:29:59.281Z,31.13
2022-09-14T20:32:26.155Z,31.45
2022-09-14T20:34:52.997Z,31.23
2022-09-14T20:37:19.831Z,30.27
2022-09-14T20:39:47.699Z,29.45
2022-09-14T20:42:14.598Z,30.25
2022-09-14T20:44:41.537Z,30.05
2022-09-14T20:47:08.428Z,31.02
2022-09-14T20:49:35.314Z,31.40
2022-09-14T20:52:03.215Z,31.13
2022-09-14T20:54:30.363Z,31.38
2022-09-14T20:57:00.987Z,31.77
2022-09-14T20:59:30.680Z,29.60
2022-09-14T21:02:00.291Z,31.48
2022-09-14T21:04:29.279Z,31.33
2022-09-14T21:06:56.246Z,31.45
2022-09-14T21:09:26.748Z,31.67
2022-09-14T21:11:53.695Z,32.80
2022-09-14T21:14:20.968Z,35.45
2022-09-14T21:16:48.647Z,36.53
2022-09-14T21:19:15.664Z,35.83
2022-09-14T21:21:43.121Z,36.67
2022-09-14T21:24:12.121Z,35.78
2022-09-14T21:26:42.680Z,37.03
2022-09-14T21:29:12.515Z,39.75
2022-09-14T21:31:39.555Z,35.75
2022-09-14T21:34:07.455Z,40.13
2022-09-14T21:36:35.771Z,37.83
2022-09-14T21:39:05.435Z,35.78
2022-09-14T21:41:32.575Z,37.05
2022-09-14T21:43:59.540Z,35.45
2022-09-14T21:46:26.864Z,35.88
2022-09-14T21:48:55.014Z,37.20
2022-09-14T21:51:32.673Z,37.50
2022-09-14T21:54:00.546Z,38.10
2022-09-14T21:56:30.624Z,37.92
2022-09-14T21:58:58.708Z,35.17
2022-09-14T22:01:25.755Z,35.15
2022-09-14T22:03:53.391Z,37.22
2022-09-14T22:06:21.267Z,35.33
2022-09-14T22:08:49.275Z,34.47
2022-09-14T22:11:22.385Z,34.45
2022-09-14T22:13:57.402Z,34.00
2022-09-14T22:16:25.242Z,32.30
2022-09-14T22:18:53.693Z,32.30
2022-09-14T22:21:21.662Z,31.92
2022-09-14T22:23:50.163Z,30.67
2022-09-14T22:26:17.111Z,29.60
2022-09-14T22:28:44.459Z,30.30
2022-09-14T22:31:11.375Z,30.70
2022-09-14T22:33:38.504Z,26.75
2022-09-14T22:36:05.540Z,28.08
2022-09-14T22:38:34.336Z,26.38
2022-09-14T22:41:02.649Z,26.75
2022-09-14T22:43:30.097Z,26.67
2022-09-14T22:45:57.496Z,22.85
2022-09-14T22:48:24.586Z,23.92
2022-09-14T22:50:52.487Z,20.77
2022-09-14T22:53:20.219Z,17.33
2022-09-14T22:55:47.600Z,19.67
2022-09-14T22:58:15.821Z,18.85
2022-09-14T23:00:42.835Z,16.38
2022-09-14T23:03:10.456Z,16.42
2022-09-14T23:05:38.008Z,16.17
2022-09-14T23:08:06.029Z,15.95
2022-09-14T23:10:35.998Z,16.35
2022-09-14T23:13:02.914Z,15.83
2022-09-14T23:15:30.107Z,15.35
2022-09-14T23:17:57.045Z,15.45
2022-09-14T23:20:23.946Z,14.23
2022-09-14T23:22:50.872Z,14.45
2022-09-14T23:25:17.691Z,16.38
2022-09-14T23:27:44.541Z,15.18
2022-09-14T23:30:11.630Z,15.90
2022-09-14T23:32:38.453Z,15.68
2022-09-14T23:35:07.361Z,16.88
2022-09-14T23:37:34.228Z,16.67
2022-09-14T23:40:01.206Z,17.55
2022-09-14T23:42:28.292Z,16.75
2022-09-14T23:44:55.225Z,17.08
2022-09-14T23:47:22.058Z,17.55
2022-09-14T23:49:49.032Z,17.77
2022-09-14T23:52:15.918Z,18.52
2022-09-14T23:54:42.993Z,18.85
2022-09-14T23:57:09.912Z,18.77
2022-09-14T23:59:36.784Z,19.38
